sensor_id;sensor_type;location;lat;lon;timestamp;pressure;altitude;pressure_sealevel;temperature;humidity
31088;BME280;17745;55.914;37.554;2022-09-16T00:01:57;97720.44;;;12.55;62.49
31088;BME280;17745;55.914;37.554;2022-09-16T00:04:27;97728.22;;;12.52;62.49
31088;BME280;17745;55.914;37.554;2022-09-16T00:06:56;97726.16;;;12.49;62.58
31088;BME280;17745;55.914;37.554;2022-09-16T00:09:51;97718.00;;;12.45;62.57
31088;BME280;17745;55.914;37.554;2022-09-16T00:12:49;97729.22;;;12.42;62.56
31088;BME280;17745;55.914;37.554;2022-09-16T00:15:58;97722.34;;;12.41;62.60
31088;BME280;17745;55.914;37.554;2022-09-16T00:18:44;97719.81;;;12.36;62.60
31088;BME280;17745;55.914;37.554;2022-09-16T00:21:26;97725.72;;;12.33;62.58
31088;BME280;17745;55.914;37.554;2022-09-16T00:24:20;97724.13;;;12.32;62.62
31088;BME280;17745;55.914;37.554;2022-09-16T00:27:16;97724.47;;;12.30;62.62
31088;BME280;17745;55.914;37.554;2022-09-16T00:29:58;97721.81;;;12.30;62.66
31088;BME280;17745;55.914;37.554;2022-09-16T00:32:52;97719.75;;;12.27;62.66
31088;BME280;17745;55.914;37.554;2022-09-16T00:35:35;97718.94;;;12.26;62.81
31088;BME280;17745;55.914;37.554;2022-09-16T00:38:09;97720.31;;;12.24;62.73
31088;BME280;17745;55.914;37.554;2022-09-16T00:40:43;97720.66;;;12.22;62.78
31088;BME280;17745;55.914;37.554;2022-09-16T00:43:14;97714.84;;;12.20;62.85
31088;BME280;17745;55.914;37.554;2022-09-16T00:45:46;97714.06;;;12.20;62.86
31088;BME280;17745;55.914;37.554;2022-09-16T00:48:22;97707.97;;;12.19;62.93
31088;BME280;17745;55.914;37.554;2022-09-16T00:50:56;97717.19;;;12.22;62.87
31088;BME280;17745;55.914;37.554;2022-09-16T00:53:30;97715.13;;;12.19;62.78
31088;BME280;17745;55.914;37.554;2022-09-16T00:56:00;97713.38;;;12.14;62.78
31088;BME280;17745;55.914;37.554;2022-09-16T00:58:34;97710.56;;;12.10;62.83
31088;BME280;17745;55.914;37.554;2022-09-16T01:01:04;97706.94;;;12.06;62.85
31088;BME280;17745;55.914;37.554;2022-09-16T01:03:38;97715.37;;;12.08;62.88
31088;BME280;17745;55.914;37.554;2022-09-16T01:06:10;97715.06;;;12.10;62.96
31088;BME280;17745;55.914;37.554;2022-09-16T01:08:41;97708.88;;;12.14;62.84
31088;BME280;17745;55.914;37.554;2022-09-16T01:11:10;97718.00;;;12.22;62.83
31088;BME280;17745;55.914;37.554;2022-09-16T01:13:40;97715.88;;;12.33;62.73
31088;BME280;17745;55.914;37.554;2022-09-16T01:16:12;97709.25;;;12.44;62.60
31088;BME280;17745;55.914;37.554;2022-09-16T01:18:48;97704.59;;;12.50;62.53
31088;BME280;17745;55.914;37.554;2022-09-16T01:21:37;97704.94;;;12.49;62.48
31088;BME280;17745;55.914;37.554;2022-09-16T01:24:33;97705.34;;;12.42;62.63
31088;BME280;17745;55.914;37.554;2022-09-16T01:30:31;97701.94;;;12.27;62.85
31088;BME280;17745;55.914;37.554;2022-09-16T01:33:03;97700.50;;;12.21;63.00
31088;BME280;17745;55.914;37.554;2022-09-16T01:35:44;97694.72;;;12.19;63.02
31088;BME280;17745;55.914;37.554;2022-09-16T01:38:27;97701.59;;;12.20;63.07
31088;BME280;17745;55.914;37.554;2022-09-16T01:41:08;97702.34;;;12.21;63.07
31088;BME280;17745;55.914;37.554;2022-09-16T01:43:44;97694.13;;;12.22;62.98
31088;BME280;17745;55.914;37.554;2022-09-16T01:46:23;97690.66;;;12.22;62.99
31088;BME280;17745;55.914;37.554;2022-09-16T01:48:57;97688.81;;;12.22;62.96
31088;BME280;17745;55.914;37.554;2022-09-16T01:51:35;97688.81;;;12.22;62.99
31088;BME280;17745;55.914;37.554;2022-09-16T01:54:37;97687.25;;;12.21;63.05
31088;BME280;17745;55.914;37.554;2022-09-16T01:57:54;97692.06;;;12.19;63.12
31088;BME280;17745;55.914;37.554;2022-09-16T02:08:31;97685.34;;;12.22;62.90
31088;BME280;17745;55.914;37.554;2022-09-16T02:11:05;97693.50;;;12.25;62.95
31088;BME280;17745;55.914;37.554;2022-09-16T02:13:40;97688.69;;;12.27;62.90
31088;BME280;17745;55.914;37.554;2022-09-16T02:16:22;97697.44;;;12.28;63.02
31088;BME280;17745;55.914;37.554;2022-09-16T02:18:58;97690.25;;;12.28;63.06
31088;BME280;17745;55.914;37.554;2022-09-16T02:21:41;97683.84;;;12.29;63.06
31088;BME280;17745;55.914;37.554;2022-09-16T02:31:31;97691.34;;;12.50;62.90
31088;BME280;17745;55.914;37.554;2022-09-16T02:34:13;97690.50;;;12.64;62.80
31088;BME280;17745;55.914;37.554;2022-09-16T02:36:53;97677.09;;;12.69;62.73
31088;BME280;17745;55.914;37.554;2022-09-16T02:39:43;97680.69;;;12.73;62.69
31088;BME280;17745;55.914;37.554;2022-09-16T02:42:23;97682.78;;;12.76;62.76
31088;BME280;17745;55.914;37.554;2022-09-16T02:45:03;97679.66;;;12.83;62.77
31088;BME280;17745;55.914;37.554;2022-09-16T02:48:02;97679.72;;;12.92;62.68
31088;BME280;17745;55.914;37.554;2022-09-16T02:51:03;97674.91;;;13.02;62.54
31088;BME280;17745;55.914;37.554;2022-09-16T02:54:29;97672.12;;;13.08;62.54
31088;BME280;17745;55.914;37.554;2022-09-16T03:02:06;97656.09;;;13.22;62.43
31088;BME280;17745;55.914;37.554;2022-09-16T03:09:09;97653.72;;;13.20;62.44
31088;BME280;17745;55.914;37.554;2022-09-16T10:39:23;97417.16;;;22.78;43.29
31088;BME280;17745;55.914;37.554;2022-09-16T10:42:36;97417.16;;;22.78;43.29
31088;BME280;17745;55.914;37.554;2022-09-16T10:45:32;97413.81;;;22.40;44.03
31088;BME280;17745;55.914;37.554;2022-09-16T10:48:23;97425.34;;;22.40;44.07
31088;BME280;17745;55.914;37.554;2022-09-16T10:51:28;97408.84;;;22.46;43.74
31088;BME280;17745;55.914;37.554;2022-09-16T10:54:48;97414.53;;;22.33;43.88
31088;BME280;17745;55.914;37.554;2022-09-16T10:58:06;97405.66;;;22.29;43.98
31088;BME280;17745;55.914;37.554;2022-09-16T11:00:44;97409.50;;;22.32;44.12
31088;BME280;17745;55.914;37.554;2022-09-16T11:03:51;97408.03;;;22.41;44.18
31088;BME280;17745;55.914;37.554;2022-09-16T11:10:47;97397.22;;;22.34;43.94
31088;BME280;17745;55.914;37.554;2022-09-16T11:14:05;97392.88;;;22.15;44.19
31088;BME280;17745;55.914;37.554;2022-09-16T11:21:03;97375.62;;;21.78;44.37
31088;BME280;17745;55.914;37.554;2022-09-16T11:24:10;97382.06;;;21.66;44.57
31088;BME280;17745;55.914;37.554;2022-09-16T11:27:03;97383.03;;;21.51;44.84
31088;BME280;17745;55.914;37.554;2022-09-16T11:30:05;97389.81;;;21.34;45.29
31088;BME280;17745;55.914;37.554;2022-09-16T11:36:37;97375.88;;;20.90;46.32
31088;BME280;17745;55.914;37.554;2022-09-16T11:39:51;97383.25;;;20.66;46.87
31088;BME280;17745;55.914;37.554;2022-09-16T11:52:29;97367.50;;;20.38;48.49
31088;BME280;17745;55.914;37.554;2022-09-16T11:56:07;97373.63;;;20.38;48.61
31088;BME280;17745;55.914;37.554;2022-09-16T11:59:21;97369.66;;;20.28;48.84
31088;BME280;17745;55.914;37.554;2022-09-16T12:02:50;97356.22;;;20.28;49.22
31088;BME280;17745;55.914;37.554;2022-09-16T12:05:55;97353.53;;;20.28;49.60
31088;BME280;17745;55.914;37.554;2022-09-16T12:08:52;97348.59;;;20.31;49.67
31088;BME280;17745;55.914;37.554;2022-09-16T12:11:33;97351.38;;;20.38;49.76
31088;BME280;17745;55.914;37.554;2022-09-16T12:14:19;97351.44;;;20.41;49.72
31088;BME280;17745;55.914;37.554;2022-09-16T12:16:56;97351.84;;;20.43;49.79
31088;BME280;17745;55.914;37.554;2022-09-16T12:19:28;97343.50;;;20.52;49.77
31088;BME280;17745;55.914;37.554;2022-09-16T12:22:25;97343.91;;;20.54;49.74
31088;BME280;17745;55.914;37.554;2022-09-16T14:15:54;97319.13;;;17.71;58.73
31088;BME280;17745;55.914;37.554;2022-09-16T14:57:26;97338.22;;;17.09;61.07
31088;BME280;17745;55.914;37.554;2022-09-16T15:04:05;97329.66;;;16.75;61.39
31088;BME280;17745;55.914;37.554;2022-09-16T15:08:01;97333.91;;;16.63;61.56
31088;BME280;17745;55.914;37.554;2022-09-16T16:21:05;97267.41;;;16.05;63.81
31088;BME280;17745;55.914;37.554;2022-09-16T16:24:26;97275.41;;;16.05;63.81
31088;BME280;17745;55.914;37.554;2022-09-16T16:27:48;97262.94;;;16.09;63.86
31088;BME280;17745;55.914;37.554;2022-09-16T17:30:11;97246.41;;;16.44;64.71
31088;BME280;17745;55.914;37.554;2022-09-16T17:32:50;97246.41;;;16.44;64.70
31088;BME280;17745;55.914;37.554;2022-09-16T17:35:20;97241.50;;;16.46;64.77
31088;BME280;17745;55.914;37.554;2022-09-16T17:38:04;97230.12;;;16.49;64.65
31088;BME280;17745;55.914;37.554;2022-09-16T17:40:56;97231.00;;;16.53;64.68
31088;BME280;17745;55.914;37.554;2022-09-16T17:46:46;97236.59;;;16.48;64.86
31088;BME280;17745;55.914;37.554;2022-09-16T17:54:05;97238.47;;;16.48;65.07
31088;BME280;17745;55.914;37.554;2022-09-16T17:57:33;97243.81;;;16.48;65.19
31088;BME280;17745;55.914;37.554;2022-09-16T18:18:37;97242.06;;;16.39;65.57
31088;BME280;17745;55.914;37.554;2022-09-16T18:28:42;97219.31;;;16.17;65.74
31088;BME280;17745;55.914;37.554;2022-09-16T18:44:44;97230.44;;;16.19;65.50
31088;BME280;17745;55.914;37.554;2022-09-16T18:47:53;97225.09;;;16.19;65.40
31088;BME280;17745;55.914;37.554;2022-09-16T18:50:25;97223.44;;;16.14;65.50
31088;BME280;17745;55.914;37.554;2022-09-16T18:53:00;97230.22;;;16.12;65.54
31088;BME280;17745;55.914;37.554;2022-09-16T18:55:59;97237.13;;;16.13;65.53
31088;BME280;17745;55.914;37.554;2022-09-16T18:58:36;97236.78;;;16.14;65.59
31088;BME280;17745;55.914;37.554;2022-09-16T19:08:02;97241.34;;;16.01;65.51
31088;BME280;17745;55.914;37.554;2022-09-16T19:10:41;97248.94;;;15.99;65.59
31088;BME280;17745;55.914;37.554;2022-09-16T19:13:31;97248.72;;;16.05;65.59
31088;BME280;17745;55.914;37.554;2022-09-16T19:16:15;97241.03;;;16.15;65.62
31088;BME280;17745;55.914;37.554;2022-09-16T19:18:54;97239.78;;;16.25;65.49
31088;BME280;17745;55.914;37.554;2022-09-16T19:21:28;97238.41;;;16.32;65.54
31088;BME280;17745;55.914;37.554;2022-09-16T19:35:21;97253.31;;;16.33;65.25
31088;BME280;17745;55.914;37.554;2022-09-16T19:39:08;97248.66;;;16.17;65.49
31088;BME280;17745;55.914;37.554;2022-09-16T19:46:10;97255.63;;;15.93;65.76
31088;BME280;17745;55.914;37.554;2022-09-16T20:04:11;97263.25;;;15.70;65.86
31088;BME280;17745;55.914;37.554;2022-09-16T20:11:31;97264.59;;;15.64;65.89
31088;BME280;17745;55.914;37.554;2022-09-16T20:14:32;97266.81;;;15.62;65.94
31088;BME280;17745;55.914;37.554;2022-09-16T20:17:39;97265.16;;;15.57;65.88
31088;BME280;17745;55.914;37.554;2022-09-16T20:21:17;97267.38;;;15.55;65.90
31088;BME280;17745;55.914;37.554;2022-09-16T20:24:35;97271.16;;;15.54;65.87
31088;BME280;17745;55.914;37.554;2022-09-16T20:27:47;97280.28;;;15.53;65.87
31088;BME280;17745;55.914;37.554;2022-09-16T20:30:57;97279.03;;;15.50;65.89
31088;BME280;17745;55.914;37.554;2022-09-16T20:41:30;97295.47;;;15.40;65.95
31088;BME280;17745;55.914;37.554;2022-09-16T20:44:54;97290.38;;;15.35;66.07
31088;BME280;17745;55.914;37.554;2022-09-16T20:47:50;97301.22;;;15.29;66.12
31088;BME280;17745;55.914;37.554;2022-09-16T20:50:38;97300.69;;;15.24;66.17
31088;BME280;17745;55.914;37.554;2022-09-16T20:53:15;97305.09;;;15.20;66.29
31088;BME280;17745;55.914;37.554;2022-09-16T20:56:19;97298.88;;;15.15;66.32
31088;BME280;17745;55.914;37.554;2022-09-16T21:14:41;97319.06;;;15.04;66.37
31088;BME280;17745;55.914;37.554;2022-09-16T21:18:29;97310.16;;;15.00;66.35
31088;BME280;17745;55.914;37.554;2022-09-16T21:25:27;97318.59;;;15.02;66.28
